sensor_id;sensor_type;location;lat;lon;timestamp;P1;durP1;ratioP1;P2;durP2;ratioP2
53519;SDS011;39397;53.204;5.778;2023-08-30T00:00:44;7.68;;;5.47;;
53519;SDS011;39397;53.204;5.778;2023-08-30T00:03:10;6.85;;;5.32;;
53519;SDS011;39397;53.204;5.778;2023-08-30T00:05:40;7.75;;;4.90;;
53519;SDS011;39397;53.204;5.778;2023-08-30T00:08:07;6.38;;;4.38;;
53519;SDS011;39397;53.204;5.778;2023-08-30T00:10:33;6.93;;;4.93;;
53519;SDS011;39397;53.204;5.778;2023-08-30T00:12:59;8.48;;;4.93;;
53519;SDS011;39397;53.204;5.778;2023-08-30T00:15:25;7.13;;;5.20;;
53519;SDS011;39397;53.204;5.778;2023-08-30T00:17:51;8.65;;;6.40;;
53519;SDS011;39397;53.204;5.778;2023-08-30T00:20:17;7.18;;;5.63;;
53519;SDS011;39397;53.204;5.778;2023-08-30T00:22:44;8.55;;;5.45;;
53519;SDS011;39397;53.204;5.778;2023-08-30T00:25:09;7.78;;;5.30;;
53519;SDS011;39397;53.204;5.778;2023-08-30T00:27:35;7.93;;;5.78;;
53519;SDS011;39397;53.204;5.778;2023-08-30T00:30:01;6.15;;;4.82;;
53519;SDS011;39397;53.204;5.778;2023-08-30T00:32:26;8.38;;;5.70;;
53519;SDS011;39397;53.204;5.778;2023-08-30T00:34:52;7.85;;;6.00;;
53519;SDS011;39397;53.204;5.778;2023-08-30T00:37:18;8.65;;;5.80;;
53519;SDS011;39397;53.204;5.778;2023-08-30T00:39:43;8.13;;;5.60;;
53519;SDS011;39397;53.204;5.778;2023-08-30T00:42:09;7.80;;;5.55;;
53519;SDS011;39397;53.204;5.778;2023-08-30T00:44:35;7.93;;;5.70;;
53519;SDS011;39397;53.204;5.778;2023-08-30T00:47:01;7.30;;;5.10;;
53519;SDS011;39397;53.204;5.778;2023-08-30T00:49:31;6.95;;;5.22;;
53519;SDS011;39397;53.204;5.778;2023-08-30T00:51:57;9.23;;;5.80;;
53519;SDS011;39397;53.204;5.778;2023-08-30T00:54:29;7.60;;;5.80;;
53519;SDS011;39397;53.204;5.778;2023-08-30T00:56:55;7.60;;;5.50;;
53519;SDS011;39397;53.204;5.778;2023-08-30T00:59:22;8.15;;;5.07;;
53519;SDS011;39397;53.204;5.778;2023-08-30T01:01:49;8.38;;;5.80;;
53519;SDS011;39397;53.204;5.778;2023-08-30T01:04:16;7.88;;;5.70;;
53519;SDS011;39397;53.204;5.778;2023-08-30T01:06:43;7.25;;;5.43;;
53519;SDS011;39397;53.204;5.778;2023-08-30T01:09:08;7.25;;;5.60;;
53519;SDS011;39397;53.204;5.778;2023-08-30T01:14:22;7.72;;;5.55;;
53519;SDS011;39397;53.204;5.778;2023-08-30T01:17:04;9.88;;;5.50;;
53519;SDS011;39397;53.204;5.778;2023-08-30T01:19:39;7.57;;;5.75;;
53519;SDS011;39397;53.204;5.778;2023-08-30T01:22:15;7.15;;;5.63;;
53519;SDS011;39397;53.204;5.778;2023-08-30T01:30:15;11.02;;;6.95;;
53519;SDS011;39397;53.204;5.778;2023-08-30T01:32:43;7.93;;;5.72;;
53519;SDS011;39397;53.204;5.778;2023-08-30T01:35:11;9.02;;;6.25;;
53519;SDS011;39397;53.204;5.778;2023-08-30T01:37:43;8.75;;;6.32;;
53519;SDS011;39397;53.204;5.778;2023-08-30T01:40:10;8.65;;;6.03;;
53519;SDS011;39397;53.204;5.778;2023-08-30T01:42:37;10.18;;;6.45;;
53519;SDS011;39397;53.204;5.778;2023-08-30T01:45:04;8.50;;;6.25;;
53519;SDS011;39397;53.204;5.778;2023-08-30T01:47:33;8.30;;;6.40;;
53519;SDS011;39397;53.204;5.778;2023-08-30T01:50:01;9.40;;;6.30;;
53519;SDS011;39397;53.204;5.778;2023-08-30T01:52:28;8.88;;;5.75;;
53519;SDS011;39397;53.204;5.778;2023-08-30T01:54:55;8.50;;;5.97;;
53519;SDS011;39397;53.204;5.778;2023-08-30T01:57:23;8.68;;;6.80;;
53519;SDS011;39397;53.204;5.778;2023-08-30T01:59:49;9.75;;;7.07;;
53519;SDS011;39397;53.204;5.778;2023-08-30T02:02:14;10.30;;;6.82;;
53519;SDS011;39397;53.204;5.778;2023-08-30T02:04:41;10.13;;;7.05;;
53519;SDS011;39397;53.204;5.778;2023-08-30T02:07:08;9.10;;;7.50;;
53519;SDS011;39397;53.204;5.778;2023-08-30T02:09:47;9.32;;;7.75;;
53519;SDS011;39397;53.204;5.778;2023-08-30T02:12:18;10.45;;;7.63;;
53519;SDS011;39397;53.204;5.778;2023-08-30T02:14:48;9.70;;;6.85;;
53519;SDS011;39397;53.204;5.778;2023-08-30T02:17:14;9.43;;;7.35;;
53519;SDS011;39397;53.204;5.778;2023-08-30T02:19:44;11.30;;;7.25;;
53519;SDS011;39397;53.204;5.778;2023-08-30T02:22:10;11.00;;;7.97;;
53519;SDS011;39397;53.204;5.778;2023-08-30T02:24:36;12.07;;;8.00;;
53519;SDS011;39397;53.204;5.778;2023-08-30T02:27:02;11.13;;;9.73;;
53519;SDS011;39397;53.204;5.778;2023-08-30T02:29:28;10.90;;;9.80;;
53519;SDS011;39397;53.204;5.778;2023-08-30T02:31:54;11.27;;;8.38;;
53519;SDS011;39397;53.204;5.778;2023-08-30T02:34:19;10.88;;;8.00;;
53519;SDS011;39397;53.204;5.778;2023-08-30T02:36:45;11.15;;;8.63;;
53519;SDS011;39397;53.204;5.778;2023-08-30T02:39:14;9.93;;;7.82;;
53519;SDS011;39397;53.204;5.778;2023-08-30T02:41:40;10.48;;;8.85;;
53519;SDS011;39397;53.204;5.778;2023-08-30T02:44:10;9.75;;;8.75;;
53519;SDS011;39397;53.204;5.778;2023-08-30T02:46:36;10.40;;;8.27;;
53519;SDS011;39397;53.204;5.778;2023-08-30T02:49:03;10.27;;;8.45;;
53519;SDS011;39397;53.204;5.778;2023-08-30T02:51:28;10.75;;;8.23;;
53519;SDS011;39397;53.204;5.778;2023-08-30T02:53:54;9.18;;;7.88;;
53519;SDS011;39397;53.204;5.778;2023-08-30T02:56:21;9.50;;;7.78;;
53519;SDS011;39397;53.204;5.778;2023-08-30T02:58:47;9.68;;;8.13;;
53519;SDS011;39397;53.204;5.778;2023-08-30T03:01:13;11.07;;;7.78;;
53519;SDS011;39397;53.204;5.778;2023-08-30T03:03:38;11.52;;;7.85;;
53519;SDS011;39397;53.204;5.778;2023-08-30T03:06:04;12.00;;;8.40;;
53519;SDS011;39397;53.204;5.778;2023-08-30T03:08:30;10.05;;;8.18;;
53519;SDS011;39397;53.204;5.778;2023-08-30T03:11:07;9.40;;;7.78;;
53519;SDS011;39397;53.204;5.778;2023-08-30T03:13:41;12.05;;;8.95;;
53519;SDS011;39397;53.204;5.778;2023-08-30T03:16:11;12.32;;;8.88;;
53519;SDS011;39397;53.204;5.778;2023-08-30T03:18:38;14.07;;;8.77;;
53519;SDS011;39397;53.204;5.778;2023-08-30T03:21:04;11.80;;;9.10;;
53519;SDS011;39397;53.204;5.778;2023-08-30T03:23:30;11.23;;;8.27;;
53519;SDS011;39397;53.204;5.778;2023-08-30T03:25:57;11.23;;;8.98;;
53519;SDS011;39397;53.204;5.778;2023-08-30T03:28:23;11.18;;;8.77;;
53519;SDS011;39397;53.204;5.778;2023-08-30T03:30:49;9.48;;;7.97;;
53519;SDS011;39397;53.204;5.778;2023-08-30T03:33:15;13.32;;;9.48;;
53519;SDS011;39397;53.204;5.778;2023-08-30T03:35:40;10.52;;;9.38;;
53519;SDS011;39397;53.204;5.778;2023-08-30T03:38:06;10.60;;;9.15;;
53519;SDS011;39397;53.204;5.778;2023-08-30T03:40:32;11.95;;;10.25;;
53519;SDS011;39397;53.204;5.778;2023-08-30T03:42:58;12.75;;;10.80;;
53519;SDS011;39397;53.204;5.778;2023-08-30T03:45:24;12.25;;;10.50;;
53519;SDS011;39397;53.204;5.778;2023-08-30T03:47:50;12.25;;;10.60;;
53519;SDS011;39397;53.204;5.778;2023-08-30T03:50:15;12.43;;;10.65;;
53519;SDS011;39397;53.204;5.778;2023-08-30T03:52:41;13.23;;;10.27;;
53519;SDS011;39397;53.204;5.778;2023-08-30T03:55:07;12.90;;;10.45;;
53519;SDS011;39397;53.204;5.778;2023-08-30T03:57:33;13.63;;;11.02;;
53519;SDS011;39397;53.204;5.778;2023-08-30T03:59:59;14.38;;;11.00;;
53519;SDS011;39397;53.204;5.778;2023-08-30T04:02:25;14.55;;;11.23;;
53519;SDS011;39397;53.204;5.778;2023-08-30T04:04:51;12.50;;;11.20;;
53519;SDS011;39397;53.204;5.778;2023-08-30T04:07:17;12.85;;;10.80;;
53519;SDS011;39397;53.204;5.778;2023-08-30T04:09:42;12.70;;;11.30;;
53519;SDS011;39397;53.204;5.778;2023-08-30T04:12:08;15.40;;;12.27;;
53519;SDS011;39397;53.204;5.778;2023-08-30T04:14:34;14.40;;;11.88;;
53519;SDS011;39397;53.204;5.778;2023-08-30T04:17:00;14.95;;;12.43;;
53519;SDS011;39397;53.204;5.778;2023-08-30T04:19:25;13.07;;;11.60;;
53519;SDS011;39397;53.204;5.778;2023-08-30T04:21:51;15.68;;;11.88;;
53519;SDS011;39397;53.204;5.778;2023-08-30T04:24:17;15.10;;;12.70;;
53519;SDS011;39397;53.204;5.778;2023-08-30T04:26:43;15.52;;;12.50;;
53519;SDS011;39397;53.204;5.778;2023-08-30T04:29:08;15.10;;;12.57;;
53519;SDS011;39397;53.204;5.778;2023-08-30T04:31:34;16.52;;;12.30;;
53519;SDS011;39397;53.204;5.778;2023-08-30T04:34:00;12.88;;;11.50;;
53519;SDS011;39397;53.204;5.778;2023-08-30T04:36:26;13.43;;;11.70;;
53519;SDS011;39397;53.204;5.778;2023-08-30T04:38:51;16.38;;;13.48;;
53519;SDS011;39397;53.204;5.778;2023-08-30T04:41:18;14.65;;;13.05;;
53519;SDS011;39397;53.204;5.778;2023-08-30T04:43:44;15.70;;;12.52;;
53519;SDS011;39397;53.204;5.778;2023-08-30T04:46:10;14.93;;;12.48;;
53519;SDS011;39397;53.204;5.778;2023-08-30T04:48:35;14.10;;;12.38;;
53519;SDS011;39397;53.204;5.778;2023-08-30T04:51:02;15.63;;;13.35;;
53519;SDS011;39397;53.204;5.778;2023-08-30T04:53:28;15.13;;;12.55;;
53519;SDS011;39397;53.204;5.778;2023-08-30T04:55:54;15.80;;;12.25;;
53519;SDS011;39397;53.204;5.778;2023-08-30T04:58:20;17.70;;;12.90;;
53519;SDS011;39397;53.204;5.778;2023-08-30T05:00:46;13.88;;;11.85;;
53519;SDS011;39397;53.204;5.778;2023-08-30T05:03:14;13.73;;;11.73;;
53519;SDS011;39397;53.204;5.778;2023-08-30T05:05:39;14.65;;;13.07;;
53519;SDS011;39397;53.204;5.778;2023-08-30T05:08:09;15.23;;;11.73;;
53519;SDS011;39397;53.204;5.778;2023-08-30T05:10:36;14.77;;;12.40;;
53519;SDS011;39397;53.204;5.778;2023-08-30T05:13:02;15.32;;;12.50;;
53519;SDS011;39397;53.204;5.778;2023-08-30T05:15:28;13.20;;;11.75;;
53519;SDS011;39397;53.204;5.778;2023-08-30T05:17:54;14.95;;;10.98;;
53519;SDS011;39397;53.204;5.778;2023-08-30T05:20:20;13.55;;;11.85;;
53519;SDS011;39397;53.204;5.778;2023-08-30T05:22:51;15.10;;;12.30;;
53519;SDS011;39397;53.204;5.778;2023-08-30T05:25:17;14.75;;;12.48;;
53519;SDS011;39397;53.204;5.778;2023-08-30T05:27:43;14.38;;;11.98;;
53519;SDS011;39397;53.204;5.778;2023-08-30T05:30:08;13.18;;;11.52;;
53519;SDS011;39397;53.204;5.778;2023-08-30T05:32:35;15.43;;;12.18;;
53519;SDS011;39397;53.204;5.778;2023-08-30T05:35:00;15.63;;;12.35;;
53519;SDS011;39397;53.204;5.778;2023-08-30T05:37:26;13.63;;;11.68;;
53519;SDS011;39397;53.204;5.778;2023-08-30T05:39:51;17.55;;;12.98;;
53519;SDS011;39397;53.204;5.778;2023-08-30T05:42:17;15.20;;;12.02;;
53519;SDS011;39397;53.204;5.778;2023-08-30T05:44:43;14.73;;;12.70;;
53519;SDS011;39397;53.204;5.778;2023-08-30T05:47:08;15.02;;;11.15;;
53519;SDS011;39397;53.204;5.778;2023-08-30T05:49:39;17.90;;;12.90;;
53519;SDS011;39397;53.204;5.778;2023-08-30T05:52:05;16.05;;;12.07;;
53519;SDS011;39397;53.204;5.778;2023-08-30T05:54:31;15.68;;;12.45;;
53519;SDS011;39397;53.204;5.778;2023-08-30T05:56:58;15.40;;;12.52;;
53519;SDS011;39397;53.204;5.778;2023-08-30T05:59:24;14.27;;;12.02;;
53519;SDS011;39397;53.204;5.778;2023-08-30T06:01:50;15.15;;;12.77;;
53519;SDS011;39397;53.204;5.778;2023-08-30T06:04:16;18.27;;;12.70;;
53519;SDS011;39397;53.204;5.778;2023-08-30T06:06:42;15.50;;;13.23;;
53519;SDS011;39397;53.204;5.778;2023-08-30T06:09:07;17.85;;;13.40;;
53519;SDS011;39397;53.204;5.778;2023-08-30T06:11:33;15.27;;;12.73;;
53519;SDS011;39397;53.204;5.778;2023-08-30T06:13:59;14.60;;;12.88;;
53519;SDS011;39397;53.204;5.778;2023-08-30T06:16:25;13.77;;;10.77;;
53519;SDS011;39397;53.204;5.778;2023-08-30T06:18:50;13.68;;;11.75;;
53519;SDS011;39397;53.204;5.778;2023-08-30T06:21:16;13.98;;;11.23;;
53519;SDS011;39397;53.204;5.778;2023-08-30T06:23:42;13.85;;;11.32;;
53519;SDS011;39397;53.204;5.778;2023-08-30T06:26:07;14.30;;;11.50;;
53519;SDS011;39397;53.204;5.778;2023-08-30T06:28:33;12.43;;;11.07;;
53519;SDS011;39397;53.204;5.778;2023-08-30T06:30:59;15.05;;;11.85;;
53519;SDS011;39397;53.204;5.778;2023-08-30T06:33:24;13.77;;;11.73;;
53519;SDS011;39397;53.204;5.778;2023-08-30T06:35:50;12.80;;;10.70;;
53519;SDS011;39397;53.204;5.778;2023-08-30T06:38:18;19.55;;;12.18;;
53519;SDS011;39397;53.204;5.778;2023-08-30T06:40:44;15.40;;;11.25;;
53519;SDS011;39397;53.204;5.778;2023-08-30T06:43:10;13.57;;;11.23;;
53519;SDS011;39397;53.204;5.778;2023-08-30T06:45:38;14.02;;;10.45;;
53519;SDS011;39397;53.204;5.778;2023-08-30T06:48:05;11.23;;;9.82;;
53519;SDS011;39397;53.204;5.778;2023-08-30T06:50:33;10.40;;;8.40;;
53519;SDS011;39397;53.204;5.778;2023-08-30T06:52:58;11.75;;;9.05;;
53519;SDS011;39397;53.204;5.778;2023-08-30T06:55:24;12.15;;;10.00;;
53519;SDS011;39397;53.204;5.778;2023-08-30T06:57:50;11.95;;;9.45;;
53519;SDS011;39397;53.204;5.778;2023-08-30T07:00:16;13.38;;;9.43;;
53519;SDS011;39397;53.204;5.778;2023-08-30T07:02:43;11.70;;;9.00;;
53519;SDS011;39397;53.204;5.778;2023-08-30T07:05:11;11.20;;;8.70;;
53519;SDS011;39397;53.204;5.778;2023-08-30T07:07:38;11.82;;;8.75;;
53519;SDS011;39397;53.204;5.778;2023-08-30T07:10:04;12.13;;;9.18;;
53519;SDS011;39397;53.204;5.778;2023-08-30T07:12:30;13.45;;;9.32;;
53519;SDS011;39397;53.204;5.778;2023-08-30T07:14:56;11.43;;;9.25;;
53519;SDS011;39397;53.204;5.778;2023-08-30T07:17:22;13.57;;;9.20;;
53519;SDS011;39397;53.204;5.778;2023-08-30T07:19:48;12.40;;;8.95;;
53519;SDS011;39397;53.204;5.778;2023-08-30T07:22:14;13.45;;;9.45;;
53519;SDS011;39397;53.204;5.778;2023-08-30T07:24:43;12.55;;;9.15;;
53519;SDS011;39397;53.204;5.778;2023-08-30T07:27:09;11.00;;;9.02;;
53519;SDS011;39397;53.204;5.778;2023-08-30T07:29:37;12.13;;;8.57;;
53519;SDS011;39397;53.204;5.778;2023-08-30T07:32:06;12.48;;;9.52;;
53519;SDS011;39397;53.204;5.778;2023-08-30T07:34:32;12.73;;;9.02;;
53519;SDS011;39397;53.204;5.778;2023-08-30T07:36:58;16.85;;;10.20;;
53519;SDS011;39397;53.204;5.778;2023-08-30T07:39:24;12.25;;;8.75;;
53519;SDS011;39397;53.204;5.778;2023-08-30T07:41:49;12.35;;;9.45;;
53519;SDS011;39397;53.204;5.778;2023-08-30T07:44:15;13.13;;;9.38;;
53519;SDS011;39397;53.204;5.778;2023-08-30T07:46:41;15.18;;;9.35;;
53519;SDS011;39397;53.204;5.778;2023-08-30T07:49:07;13.93;;;9.32;;
53519;SDS011;39397;53.204;5.778;2023-08-30T07:51:33;12.45;;;9.45;;
53519;SDS011;39397;53.204;5.778;2023-08-30T07:53:58;12.90;;;9.07;;
53519;SDS011;39397;53.204;5.778;2023-08-30T07:56:24;11.45;;;9.18;;
53519;SDS011;39397;53.204;5.778;2023-08-30T07:58:50;13.80;;;8.77;;
53519;SDS011;39397;53.204;5.778;2023-08-30T08:01:16;11.85;;;8.25;;
53519;SDS011;39397;53.204;5.778;2023-08-30T08:03:42;11.50;;;8.90;;
53519;SDS011;39397;53.204;5.778;2023-08-30T08:06:08;12.05;;;8.57;;
53519;SDS011;39397;53.204;5.778;2023-08-30T08:08:33;11.50;;;7.93;;
53519;SDS011;39397;53.204;5.778;2023-08-30T08:10:59;14.48;;;9.27;;
53519;SDS011;39397;53.204;5.778;2023-08-30T08:13:25;12.55;;;9.82;;
53519;SDS011;39397;53.204;5.778;2023-08-30T08:15:51;12.95;;;9.32;;
53519;SDS011;39397;53.204;5.778;2023-08-30T08:18:16;14.50;;;8.80;;
53519;SDS011;39397;53.204;5.778;2023-08-30T08:20:42;11.63;;;8.57;;
53519;SDS011;39397;53.204;5.778;2023-08-30T08:23:08;12.93;;;8.38;;
53519;SDS011;39397;53.204;5.778;2023-08-30T08:25:34;10.48;;;7.07;;
53519;SDS011;39397;53.204;5.778;2023-08-30T08:28:00;10.57;;;7.43;;
53519;SDS011;39397;53.204;5.778;2023-08-30T08:30:25;9.90;;;6.70;;
53519;SDS011;39397;53.204;5.778;2023-08-30T08:32:51;10.00;;;7.15;;
53519;SDS011;39397;53.204;5.778;2023-08-30T08:35:17;10.90;;;7.20;;
53519;SDS011;39397;53.204;5.778;2023-08-30T08:37:42;9.35;;;6.30;;
53519;SDS011;39397;53.204;5.778;2023-08-30T08:40:08;9.07;;;6.03;;
53519;SDS011;39397;53.204;5.778;2023-08-30T08:42:35;9.48;;;6.25;;
53519;SDS011;39397;53.204;5.778;2023-08-30T08:45:02;9.93;;;6.10;;
53519;SDS011;39397;53.204;5.778;2023-08-30T08:47:29;9.95;;;6.60;;
53519;SDS011;39397;53.204;5.778;2023-08-30T08:49:56;10.55;;;5.80;;
53519;SDS011;39397;53.204;5.778;2023-08-30T08:52:25;9.20;;;5.85;;
53519;SDS011;39397;53.204;5.778;2023-08-30T08:54:51;9.40;;;5.80;;
53519;SDS011;39397;53.204;5.778;2023-08-30T08:57:17;9.10;;;5.65;;
53519;SDS011;39397;53.204;5.778;2023-08-30T08:59:44;9.32;;;6.25;;
53519;SDS011;39397;53.204;5.778;2023-08-30T09:02:12;7.95;;;5.07;;
53519;SDS011;39397;53.204;5.778;2023-08-30T09:04:39;9.13;;;5.07;;
53519;SDS011;39397;53.204;5.778;2023-08-30T09:07:05;10.10;;;4.82;;
53519;SDS011;39397;53.204;5.778;2023-08-30T09:09:32;9.10;;;4.85;;
53519;SDS011;39397;53.204;5.778;2023-08-30T09:11:58;7.78;;;4.53;;
53519;SDS011;39397;53.204;5.778;2023-08-30T09:14:24;7.03;;;4.40;;
53519;SDS011;39397;53.204;5.778;2023-08-30T09:17:00;9.10;;;4.63;;
53519;SDS011;39397;53.204;5.778;2023-08-30T09:19:27;8.40;;;4.57;;
53519;SDS011;39397;53.204;5.778;2023-08-30T09:21:55;6.95;;;4.45;;
53519;SDS011;39397;53.204;5.778;2023-08-30T09:24:22;6.75;;;4.53;;
53519;SDS011;39397;53.204;5.778;2023-08-30T09:26:49;8.40;;;4.80;;
53519;SDS011;39397;53.204;5.778;2023-08-30T09:29:18;8.45;;;4.57;;
53519;SDS011;39397;53.204;5.778;2023-08-30T09:31:45;8.18;;;5.15;;
53519;SDS011;39397;53.204;5.778;2023-08-30T09:34:11;10.23;;;5.45;;
53519;SDS011;39397;53.204;5.778;2023-08-30T09:36:37;8.77;;;5.07;;
53519;SDS011;39397;53.204;5.778;2023-08-30T09:39:05;7.95;;;5.35;;
53519;SDS011;39397;53.204;5.778;2023-08-30T09:41:35;10.38;;;5.18;;
53519;SDS011;39397;53.204;5.778;2023-08-30T09:44:10;10.20;;;5.32;;
53519;SDS011;39397;53.204;5.778;2023-08-30T09:49:20;7.95;;;4.88;;
53519;SDS011;39397;53.204;5.778;2023-08-30T09:52:04;10.27;;;5.13;;
53519;SDS011;39397;53.204;5.778;2023-08-30T09:54:36;8.70;;;5.25;;
53519;SDS011;39397;53.204;5.778;2023-08-30T09:57:06;10.98;;;5.55;;
53519;SDS011;39397;53.204;5.778;2023-08-30T09:59:33;7.88;;;4.53;;
53519;SDS011;39397;53.204;5.778;2023-08-30T10:01:58;8.48;;;5.00;;
53519;SDS011;39397;53.204;5.778;2023-08-30T10:04:27;6.15;;;4.78;;
53519;SDS011;39397;53.204;5.778;2023-08-30T10:06:55;7.80;;;5.43;;
53519;SDS011;39397;53.204;5.778;2023-08-30T10:09:22;8.65;;;5.05;;
53519;SDS011;39397;53.204;5.778;2023-08-30T10:11:49;7.85;;;4.68;;
53519;SDS011;39397;53.204;5.778;2023-08-30T10:14:16;9.10;;;5.00;;
53519;SDS011;39397;53.204;5.778;2023-08-30T10:16:46;8.02;;;4.95;;
53519;SDS011;39397;53.204;5.778;2023-08-30T10:19:17;8.65;;;5.15;;
53519;SDS011;39397;53.204;5.778;2023-08-30T10:21:51;11.50;;;5.95;;
53519;SDS011;39397;53.204;5.778;2023-08-30T10:24:29;7.38;;;5.07;;
53519;SDS011;39397;53.204;5.778;2023-08-30T10:27:00;9.48;;;6.20;;
53519;SDS011;39397;53.204;5.778;2023-08-30T10:29:29;9.38;;;6.05;;
53519;SDS011;39397;53.204;5.778;2023-08-30T10:32:02;7.32;;;5.13;;
53519;SDS011;39397;53.204;5.778;2023-08-30T10:34:32;9.68;;;4.75;;
53519;SDS011;39397;53.204;5.778;2023-08-30T10:36:59;8.27;;;5.53;;
53519;SDS011;39397;53.204;5.778;2023-08-30T10:39:33;9.93;;;5.88;;
53519;SDS011;39397;53.204;5.778;2023-08-30T10:42:00;8.63;;;5.95;;
53519;SDS011;39397;53.204;5.778;2023-08-30T10:44:32;7.68;;;5.28;;
53519;SDS011;39397;53.204;5.778;2023-08-30T10:46:58;8.70;;;6.40;;
53519;SDS011;39397;53.204;5.778;2023-08-30T10:49:29;8.90;;;5.80;;
53519;SDS011;39397;53.204;5.778;2023-08-30T10:52:04;7.43;;;5.53;;
53519;SDS011;39397;53.204;5.778;2023-08-30T10:54:36;7.30;;;5.47;;
53519;SDS011;39397;53.204;5.778;2023-08-30T10:57:05;8.02;;;5.28;;
53519;SDS011;39397;53.204;5.778;2023-08-30T10:59:37;7.80;;;5.70;;
53519;SDS011;39397;53.204;5.778;2023-08-30T11:02:03;9.40;;;5.68;;
53519;SDS011;39397;53.204;5.778;2023-08-30T11:04:29;6.88;;;5.20;;
53519;SDS011;39397;53.204;5.778;2023-08-30T11:06:55;7.65;;;5.68;;
53519;SDS011;39397;53.204;5.778;2023-08-30T11:09:22;7.20;;;5.07;;
53519;SDS011;39397;53.204;5.778;2023-08-30T11:11:50;8.75;;;4.80;;
53519;SDS011;39397;53.204;5.778;2023-08-30T11:14:16;7.57;;;5.32;;
53519;SDS011;39397;53.204;5.778;2023-08-30T11:16:44;9.65;;;5.18;;
53519;SDS011;39397;53.204;5.778;2023-08-30T11:19:10;7.95;;;5.38;;
53519;SDS011;39397;53.204;5.778;2023-08-30T11:21:39;8.43;;;5.97;;
53519;SDS011;39397;53.204;5.778;2023-08-30T11:24:08;7.68;;;5.32;;
53519;SDS011;39397;53.204;5.778;2023-08-30T11:26:35;7.72;;;5.63;;
53519;SDS011;39397;53.204;5.778;2023-08-30T11:29:04;8.43;;;5.28;;
53519;SDS011;39397;53.204;5.778;2023-08-30T11:31:33;8.40;;;5.47;;
53519;SDS011;39397;53.204;5.778;2023-08-30T11:33:59;6.72;;;4.60;;
53519;SDS011;39397;53.204;5.778;2023-08-30T11:36:26;9.27;;;6.57;;
53519;SDS011;39397;53.204;5.778;2023-08-30T11:38:53;8.32;;;5.88;;
53519;SDS011;39397;53.204;5.778;2023-08-30T11:41:20;8.48;;;5.72;;
53519;SDS011;39397;53.204;5.778;2023-08-30T11:43:53;7.57;;;5.72;;
53519;SDS011;39397;53.204;5.778;2023-08-30T11:46:19;10.55;;;6.15;;
53519;SDS011;39397;53.204;5.778;2023-08-30T11:48:46;10.75;;;6.22;;
53519;SDS011;39397;53.204;5.778;2023-08-30T11:51:13;8.93;;;5.95;;
53519;SDS011;39397;53.204;5.778;2023-08-30T11:53:39;9.25;;;6.32;;
53519;SDS011;39397;53.204;5.778;2023-08-30T11:56:05;8.02;;;5.15;;
53519;SDS011;39397;53.204;5.778;2023-08-30T11:58:32;7.72;;;5.50;;
53519;SDS011;39397;53.204;5.778;2023-08-30T12:00:59;7.90;;;5.70;;
53519;SDS011;39397;53.204;5.778;2023-08-30T12:03:29;6.82;;;4.70;;
53519;SDS011;39397;53.204;5.778;2023-08-30T12:05:56;7.28;;;4.65;;
53519;SDS011;39397;53.204;5.778;2023-08-30T12:08:24;6.28;;;4.60;;
53519;SDS011;39397;53.204;5.778;2023-08-30T12:10:52;5.68;;;4.45;;
53519;SDS011;39397;53.204;5.778;2023-08-30T12:16:03;5.80;;;4.47;;
53519;SDS011;39397;53.204;5.778;2023-08-30T12:18:31;7.43;;;5.07;;
53519;SDS011;39397;53.204;5.778;2023-08-30T12:23:31;6.82;;;5.15;;
53519;SDS011;39397;53.204;5.778;2023-08-30T12:26:05;7.38;;;5.50;;
53519;SDS011;39397;53.204;5.778;2023-08-30T12:28:33;7.32;;;4.13;;
53519;SDS011;39397;53.204;5.778;2023-08-30T12:31:00;5.72;;;4.50;;
53519;SDS011;39397;53.204;5.778;2023-08-30T12:33:26;5.72;;;4.20;;
53519;SDS011;39397;53.204;5.778;2023-08-30T12:35:55;7.13;;;4.10;;
53519;SDS011;39397;53.204;5.778;2023-08-30T12:38:21;7.93;;;5.03;;
53519;SDS011;39397;53.204;5.778;2023-08-30T12:40:48;9.55;;;6.53;;
53519;SDS011;39397;53.204;5.778;2023-08-30T12:43:18;8.25;;;5.70;;
53519;SDS011;39397;53.204;5.778;2023-08-30T12:45:45;4.88;;;3.53;;
53519;SDS011;39397;53.204;5.778;2023-08-30T12:48:12;4.72;;;3.03;;
53519;SDS011;39397;53.204;5.778;2023-08-30T12:50:42;5.72;;;3.42;;
53519;SDS011;39397;53.204;5.778;2023-08-30T12:53:09;4.13;;;2.95;;
53519;SDS011;39397;53.204;5.778;2023-08-30T12:55:35;5.22;;;3.10;;
53519;SDS011;39397;53.204;5.778;2023-08-30T12:58:06;5.18;;;3.00;;
53519;SDS011;39397;53.204;5.778;2023-08-30T13:00:34;4.65;;;3.33;;
53519;SDS011;39397;53.204;5.778;2023-08-30T13:03:00;5.65;;;3.40;;
53519;SDS011;39397;53.204;5.778;2023-08-30T13:05:26;3.70;;;2.72;;
53519;SDS011;39397;53.204;5.778;2023-08-30T13:07:52;4.60;;;2.97;;
53519;SDS011;39397;53.204;5.778;2023-08-30T13:10:18;4.60;;;3.05;;
53519;SDS011;39397;53.204;5.778;2023-08-30T13:12:44;6.38;;;3.15;;
53519;SDS011;39397;53.204;5.778;2023-08-30T13:15:10;4.63;;;3.10;;
53519;SDS011;39397;53.204;5.778;2023-08-30T13:17:36;4.38;;;3.00;;
53519;SDS011;39397;53.204;5.778;2023-08-30T13:20:04;5.25;;;3.20;;
53519;SDS011;39397;53.204;5.778;2023-08-30T13:22:30;5.03;;;3.15;;
53519;SDS011;39397;53.204;5.778;2023-08-30T13:24:56;4.45;;;2.92;;
53519;SDS011;39397;53.204;5.778;2023-08-30T13:27:21;4.75;;;3.22;;
53519;SDS011;39397;53.204;5.778;2023-08-30T13:29:47;5.22;;;3.33;;
53519;SDS011;39397;53.204;5.778;2023-08-30T13:32:13;7.20;;;3.45;;
53519;SDS011;39397;53.204;5.778;2023-08-30T13:34:39;5.53;;;3.42;;
53519;SDS011;39397;53.204;5.778;2023-08-30T13:37:05;5.97;;;3.88;;
53519;SDS011;39397;53.204;5.778;2023-08-30T13:39:31;6.15;;;4.30;;
53519;SDS011;39397;53.204;5.778;2023-08-30T13:41:57;6.63;;;3.38;;
53519;SDS011;39397;53.204;5.778;2023-08-30T13:44:22;4.88;;;3.38;;
53519;SDS011;39397;53.204;5.778;2023-08-30T13:46:49;6.00;;;2.60;;
53519;SDS011;39397;53.204;5.778;2023-08-30T13:49:15;6.53;;;3.33;;
53519;SDS011;39397;53.204;5.778;2023-08-30T13:51:41;6.32;;;3.22;;
53519;SDS011;39397;53.204;5.778;2023-08-30T13:54:07;5.68;;;3.00;;
53519;SDS011;39397;53.204;5.778;2023-08-30T13:56:33;5.32;;;2.83;;
53519;SDS011;39397;53.204;5.778;2023-08-30T13:58:58;8.20;;;4.05;;
53519;SDS011;39397;53.204;5.778;2023-08-30T14:01:24;8.60;;;4.47;;
53519;SDS011;39397;53.204;5.778;2023-08-30T14:03:50;8.57;;;2.58;;
53519;SDS011;39397;53.204;5.778;2023-08-30T14:06:15;8.65;;;2.40;;
53519;SDS011;39397;53.204;5.778;2023-08-30T14:08:42;4.13;;;1.50;;
53519;SDS011;39397;53.204;5.778;2023-08-30T14:11:08;5.60;;;2.20;;
53519;SDS011;39397;53.204;5.778;2023-08-30T14:13:34;7.97;;;2.75;;
53519;SDS011;39397;53.204;5.778;2023-08-30T14:16:00;7.47;;;2.28;;
53519;SDS011;39397;53.204;5.778;2023-08-30T14:18:26;6.38;;;1.63;;
53519;SDS011;39397;53.204;5.778;2023-08-30T14:20:55;7.18;;;1.67;;
53519;SDS011;39397;53.204;5.778;2023-08-30T14:23:24;7.93;;;2.08;;
53519;SDS011;39397;53.204;5.778;2023-08-30T14:26:00;8.65;;;2.03;;
53519;SDS011;39397;53.204;5.778;2023-08-30T14:28:33;8.20;;;2.20;;
53519;SDS011;39397;53.204;5.778;2023-08-30T14:30:59;5.65;;;1.70;;
53519;SDS011;39397;53.204;5.778;2023-08-30T14:33:26;4.28;;;1.40;;
53519;SDS011;39397;53.204;5.778;2023-08-30T14:35:54;6.28;;;1.15;;
53519;SDS011;39397;53.204;5.778;2023-08-30T14:38:21;4.43;;;1.15;;
53519;SDS011;39397;53.204;5.778;2023-08-30T14:40:56;4.90;;;1.23;;
53519;SDS011;39397;53.204;5.778;2023-08-30T14:43:23;6.07;;;1.40;;
53519;SDS011;39397;53.204;5.778;2023-08-30T14:45:49;7.18;;;1.90;;
53519;SDS011;39397;53.204;5.778;2023-08-30T14:48:14;8.30;;;1.67;;
53519;SDS011;39397;53.204;5.778;2023-08-30T14:50:40;6.78;;;1.40;;
53519;SDS011;39397;53.204;5.778;2023-08-30T14:53:06;4.57;;;1.20;;